createdAt,value
2022-12-28T00:01:38.751Z,10.48
2022-12-28T00:04:06.952Z,10.50
2022-12-28T00:06:34.575Z,13.60
2022-12-28T00:09:02.574Z,13.65
2022-12-28T00:11:30.960Z,13.30
2022-12-28T00:14:02.026Z,12.65
2022-12-28T00:16:40.142Z,8.15
2022-12-28T00:19:14.297Z,7.65
2022-12-28T00:21:41.867Z,11.05
2022-12-28T00:24:14.871Z,11.15
2022-12-28T00:26:41.753Z,10.98
2022-12-28T00:29:08.927Z,9.10
2022-12-28T00:31:35.813Z,9.07
2022-12-28T00:34:03.774Z,9.90
2022-12-28T00:37:08.570Z,12.63
2022-12-28T00:39:22.378Z,8.75
2022-12-28T00:41:49.520Z,8.98
2022-12-28T00:44:16.431Z,7.32
2022-12-28T00:46:43.356Z,10.80
2022-12-28T00:49:11.586Z,7.78
2022-12-28T00:51:38.482Z,13.13
2022-12-28T00:54:05.457Z,14.45
2022-12-28T00:56:32.582Z,10.90
2022-12-28T00:58:59.986Z,6.63
2022-12-28T01:01:28.149Z,13.07
2022-12-28T01:03:57.771Z,12.23
2022-12-28T01:06:25.737Z,14.95
2022-12-28T01:08:52.694Z,8.50
2022-12-28T01:11:20.774Z,12.27
2022-12-28T01:13:48.410Z,10.02
2022-12-28T01:16:36.939Z,9.63
2022-12-28T01:19:06.366Z,7.50
2022-12-28T01:21:35.567Z,6.45
2022-12-28T01:24:05.407Z,9.85
2022-12-28T01:26:32.356Z,10.43
2022-12-28T01:28:59.354Z,6.68
2022-12-28T01:31:26.943Z,6.90
2022-12-28T01:33:54.088Z,11.55
2022-12-28T01:36:23.484Z,10.70
2022-12-28T01:38:58.933Z,7.90
2022-12-28T01:41:27.794Z,9.88
2022-12-28T01:43:54.699Z,9.60
2022-12-28T01:46:39.960Z,8.48
2022-12-28T01:49:16.771Z,6.05
2022-12-28T01:52:17.227Z,6.68
2022-12-28T01:54:50.525Z,8.13
2022-12-28T01:57:26.068Z,8.77
2022-12-28T02:00:04.429Z,13.38
2022-12-28T02:02:41.503Z,9.88
2022-12-28T02:05:09.287Z,13.93
2022-12-28T02:07:46.407Z,11.27
2022-12-28T02:10:43.619Z,6.82
2022-12-28T02:13:03.372Z,9.57
2022-12-28T02:15:30.611Z,7.57
2022-12-28T02:17:58.087Z,10.73
2022-12-28T02:20:32.912Z,10.00
2022-12-28T02:23:23.177Z,9.35
2022-12-28T02:26:42.253Z,9.52
2022-12-28T02:29:14.465Z,8.98
2022-12-28T02:34:15.951Z,7.65
2022-12-28T02:36:49.986Z,5.68
2022-12-28T02:39:28.234Z,9.52
2022-12-28T02:41:56.403Z,10.45
2022-12-28T02:44:43.047Z,10.55
2022-12-28T02:47:33.437Z,10.98
2022-12-28T02:50:07.743Z,9.95
2022-12-28T02:53:17.050Z,10.43
2022-12-28T02:56:22.388Z,11.63
2022-12-28T02:59:20.938Z,8.13
2022-12-28T03:02:16.683Z,8.98
2022-12-28T03:04:52.868Z,10.20
2022-12-28T03:08:12.069Z,12.70
2022-12-28T03:10:49.856Z,13.25
2022-12-28T03:13:44.206Z,7.00
2022-12-28T03:16:21.308Z,10.27
2022-12-28T03:19:16.113Z,7.53
2022-12-28T03:22:03.730Z,9.57
2022-12-28T03:24:50.650Z,12.15
2022-12-28T03:27:41.423Z,7.30
2022-12-28T03:30:31.960Z,12.75
2022-12-28T03:33:00.024Z,10.43
2022-12-28T03:35:36.648Z,8.82
2022-12-28T03:38:04.644Z,14.77
2022-12-28T03:40:32.278Z,15.25
2022-12-28T03:43:22.901Z,9.80
2022-12-28T03:46:30.599Z,9.23
2022-12-28T03:49:02.576Z,11.98
2022-12-28T03:51:32.056Z,11.43
2022-12-28T03:54:04.109Z,13.85
2022-12-28T03:56:31.197Z,13.30
2022-12-28T03:59:01.046Z,12.52
2022-12-28T04:01:36.895Z,13.25
2022-12-28T04:04:03.885Z,14.05
2022-12-28T04:06:30.762Z,10.18
2022-12-28T04:08:57.767Z,13.05
2022-12-28T04:11:27.639Z,10.80
2022-12-28T04:13:55.294Z,12.15
2022-12-28T04:16:22.483Z,10.50
2022-12-28T04:18:49.562Z,13.27
2022-12-28T04:21:16.730Z,12.50
2022-12-28T04:23:45.034Z,14.77
2022-12-28T04:26:21.937Z,12.02
2022-12-28T04:28:51.831Z,13.00
2022-12-28T04:31:18.854Z,11.93
2022-12-28T04:33:52.437Z,11.90
2022-12-28T04:36:19.770Z,14.35
2022-12-28T04:38:49.762Z,16.83
2022-12-28T04:41:16.663Z,14.40
2022-12-28T04:43:43.720Z,15.20
2022-12-28T04:46:13.469Z,17.58
2022-12-28T04:48:41.368Z,13.00
2022-12-28T04:51:10.736Z,9.85
2022-12-28T04:53:39.181Z,15.82
2022-12-28T04:56:08.109Z,17.08
2022-12-28T04:58:35.009Z,13.23
2022-12-28T05:01:04.050Z,14.43
2022-12-28T05:03:31.149Z,11.57
2022-12-28T05:06:07.462Z,12.50
2022-12-28T05:08:35.980Z,22.02
2022-12-28T05:11:05.002Z,16.13
2022-12-28T05:13:31.930Z,13.25
2022-12-28T05:16:11.174Z,17.95
2022-12-28T05:18:38.469Z,13.93
2022-12-28T05:21:09.867Z,15.90
2022-12-28T05:23:38.464Z,12.20
2022-12-28T05:26:06.829Z,14.10
2022-12-28T05:28:33.966Z,10.13
2022-12-28T05:31:02.964Z,19.20
2022-12-28T05:33:32.202Z,11.05
2022-12-28T05:36:07.274Z,11.13
2022-12-28T05:38:35.183Z,12.70
2022-12-28T05:41:06.108Z,13.70
2022-12-28T05:43:33.529Z,12.65
2022-12-28T05:46:05.943Z,13.95
2022-12-28T05:48:34.216Z,18.48
2022-12-28T05:51:07.319Z,11.77
2022-12-28T05:53:34.745Z,14.68
2022-12-28T05:56:03.983Z,10.38
2022-12-28T05:58:31.689Z,12.40
2022-12-28T06:01:16.706Z,9.82
2022-12-28T06:03:44.521Z,13.50
2022-12-28T06:06:17.525Z,13.75
2022-12-28T06:08:45.863Z,14.90
2022-12-28T06:11:15.810Z,11.45
2022-12-28T06:13:43.310Z,10.98
2022-12-28T06:16:14.433Z,13.13
2022-12-28T06:18:41.743Z,10.73
2022-12-28T06:21:13.025Z,12.52
2022-12-28T06:23:40.604Z,16.98
2022-12-28T06:26:09.076Z,11.77
2022-12-28T06:28:39.770Z,8.95
2022-12-28T06:31:17.113Z,11.90
2022-12-28T06:33:44.885Z,14.32
2022-12-28T06:36:19.687Z,9.15
2022-12-28T06:38:48.882Z,10.98
2022-12-28T06:41:17.106Z,14.10
2022-12-28T06:43:47.958Z,9.60
2022-12-28T06:46:16.323Z,12.82
2022-12-28T06:48:43.656Z,11.48
2022-12-28T06:51:30.783Z,11.35
2022-12-28T06:53:57.972Z,10.98
2022-12-28T06:56:27.458Z,13.32
2022-12-28T06:59:00.548Z,9.30
2022-12-28T07:01:35.840Z,13.13
2022-12-28T07:04:04.409Z,7.50
2022-12-28T07:06:35.663Z,14.25
2022-12-28T07:09:05.734Z,7.90
2022-12-28T07:11:33.253Z,6.35
2022-12-28T07:14:00.311Z,5.47
2022-12-28T07:18:56.336Z,19.15
2022-12-28T07:21:31.727Z,7.40
2022-12-28T07:23:58.702Z,6.93
2022-12-28T07:26:28.322Z,13.35
2022-12-28T07:28:56.875Z,11.00
2022-12-28T07:31:27.720Z,7.72
2022-12-28T07:33:56.278Z,13.75
2022-12-28T07:36:24.080Z,8.38
2022-12-28T07:38:51.545Z,11.00
2022-12-28T07:41:29.768Z,6.82
2022-12-28T07:43:59.072Z,9.55
2022-12-28T07:46:29.453Z,9.95
2022-12-28T07:48:59.247Z,14.15
2022-12-28T07:51:29.152Z,10.80
2022-12-28T07:53:58.062Z,9.50
2022-12-28T07:56:26.500Z,7.60
2022-12-28T07:58:56.172Z,7.88
2022-12-28T08:01:26.446Z,17.65
2022-12-28T08:03:55.667Z,10.02
2022-12-28T08:06:23.758Z,8.60
2022-12-28T08:08:53.702Z,9.20
2022-12-28T08:11:23.371Z,9.38
2022-12-28T08:13:52.460Z,7.78
2022-12-28T08:16:21.139Z,7.05
2022-12-28T08:18:49.541Z,6.43
2022-12-28T08:21:19.712Z,6.50
2022-12-28T08:23:46.782Z,8.10
2022-12-28T08:26:16.617Z,8.60
2022-12-28T08:28:44.904Z,6.90
2022-12-28T08:31:18.234Z,7.18
2022-12-28T08:33:45.327Z,7.28
2022-12-28T08:36:12.695Z,9.95
2022-12-28T08:38:41.374Z,9.82
2022-12-28T08:41:12.268Z,10.13
2022-12-28T08:43:39.161Z,9.90
2022-12-28T08:46:08.925Z,8.95
2022-12-28T08:48:36.124Z,9.38
2022-12-28T08:51:09.114Z,15.85
2022-12-28T08:53:36.480Z,9.23
2022-12-28T08:56:06.760Z,11.85
2022-12-28T08:58:34.573Z,10.98
2022-12-28T09:01:13.902Z,10.63
2022-12-28T09:03:43.310Z,16.65
2022-12-28T09:06:12.801Z,12.55
2022-12-28T09:08:42.277Z,17.08
2022-12-28T09:11:12.626Z,11.55
2022-12-28T09:13:40.176Z,10.40
2022-12-28T09:16:09.549Z,21.10
2022-12-28T09:18:37.165Z,13.88
2022-12-28T09:21:08.379Z,15.05
2022-12-28T09:23:35.680Z,14.90
2022-12-28T09:26:10.096Z,14.32
2022-12-28T09:28:37.352Z,11.57
2022-12-28T09:31:08.878Z,9.65
2022-12-28T09:34:34.429Z,11.85
2022-12-28T09:36:44.283Z,15.73
2022-12-28T09:39:17.614Z,16.30
2022-12-28T09:42:07.302Z,10.77
2022-12-28T09:44:57.450Z,15.10
2022-12-28T09:47:51.770Z,15.52
2022-12-28T09:50:18.892Z,21.15
2022-12-28T09:53:07.581Z,13.07
2022-12-28T09:55:39.478Z,18.23
2022-12-28T09:58:14.356Z,22.58
2022-12-28T10:01:04.323Z,19.35
2022-12-28T10:03:42.457Z,13.82
2022-12-28T10:06:16.101Z,17.00
2022-12-28T10:08:49.846Z,10.20
2022-12-28T10:11:28.534Z,14.50
2022-12-28T10:13:58.200Z,18.48
2022-12-28T10:16:28.197Z,17.67
2022-12-28T10:18:55.657Z,14.55
2022-12-28T10:21:31.643Z,14.70
2022-12-28T10:26:47.734Z,16.30
2022-12-28T10:29:19.858Z,20.83
2022-12-28T10:31:59.667Z,11.57
2022-12-28T10:34:33.549Z,12.02
2022-12-28T10:37:24.594Z,15.38
2022-12-28T10:40:00.949Z,8.38
2022-12-28T10:42:43.526Z,9.30
2022-12-28T10:45:19.191Z,19.25
2022-12-28T10:47:52.464Z,11.50
2022-12-28T10:50:40.168Z,9.05
2022-12-28T10:53:31.769Z,17.25
2022-12-28T10:56:12.169Z,15.57
2022-12-28T10:58:51.585Z,12.00
2022-12-28T11:01:20.126Z,12.90
2022-12-28T11:04:15.921Z,8.68
2022-12-28T11:07:00.701Z,10.93
2022-12-28T11:09:29.563Z,5.90
2022-12-28T11:12:17.403Z,9.82
2022-12-28T11:14:44.554Z,6.07
2022-12-28T11:17:14.541Z,6.85
2022-12-28T11:19:41.735Z,7.95
2022-12-28T11:22:13.606Z,2.95
2022-12-28T11:24:40.931Z,6.75
2022-12-28T11:27:13.536Z,3.95
2022-12-28T11:29:48.776Z,6.78
2022-12-28T11:32:24.477Z,5.22
2022-12-28T11:34:54.349Z,4.07
2022-12-28T11:37:21.299Z,3.80
2022-12-28T11:39:50.267Z,7.88
2022-12-28T11:42:54.467Z,4.10
2022-12-28T11:45:50.588Z,3.35
2022-12-28T11:48:46.620Z,3.00
2022-12-28T11:51:17.950Z,3.78
2022-12-28T11:53:44.901Z,3.33
2022-12-28T11:56:16.751Z,3.78
2022-12-28T11:59:06.148Z,6.07
2022-12-28T12:01:34.891Z,6.30
2022-12-28T12:04:01.857Z,6.63
2022-12-28T12:06:55.032Z,4.95
2022-12-28T12:09:21.896Z,2.80
2022-12-28T12:11:50.909Z,3.92
2022-12-28T12:14:23.851Z,3.83
2022-12-28T12:16:57.114Z,9.73
2022-12-28T12:19:28.820Z,3.70
2022-12-28T12:22:16.142Z,7.93
2022-12-28T12:24:49.729Z,11.05
2022-12-28T12:27:36.557Z,3.88
2022-12-28T12:30:13.543Z,5.40
2022-12-28T12:32:45.255Z,4.15
2022-12-28T12:35:23.444Z,4.43
2022-12-28T12:38:02.672Z,7.28
2022-12-28T12:40:50.409Z,7.55
2022-12-28T12:43:20.188Z,4.22
2022-12-28T12:46:24.677Z,4.45
2022-12-28T12:49:13.123Z,5.68
2022-12-28T12:51:55.001Z,8.20
2022-12-28T12:54:43.689Z,5.37
2022-12-28T12:57:14.719Z,4.95
2022-12-28T13:00:01.895Z,4.55
2022-12-28T13:02:48.281Z,11.63
2022-12-28T13:05:19.797Z,6.40
2022-12-28T13:07:47.044Z,5.20
2022-12-28T13:10:18.540Z,5.22
2022-12-28T13:12:45.748Z,7.40
2022-12-28T13:15:17.755Z,8.95
2022-12-28T13:18:43.943Z,6.75
2022-12-28T13:21:02.942Z,6.53
2022-12-28T13:23:32.965Z,10.27
2022-12-28T13:26:02.335Z,8.02
2022-12-28T13:28:33.388Z,6.72
2022-12-28T13:31:26.241Z,7.82
2022-12-28T13:33:59.158Z,6.55
2022-12-28T13:36:26.554Z,8.60
2022-12-28T13:39:13.729Z,8.70
2022-12-28T13:41:48.277Z,9.45
2022-12-28T13:44:33.619Z,5.40
2022-12-28T13:47:15.975Z,14.68
2022-12-28T13:52:25.105Z,5.30
2022-12-28T13:54:58.348Z,7.80
2022-12-28T14:00:20.459Z,9.15
2022-12-28T14:02:49.464Z,11.73
2022-12-28T14:05:22.609Z,6.05
2022-12-28T14:07:51.549Z,12.73
2022-12-28T14:10:19.767Z,7.43
2022-12-28T14:12:48.460Z,6.47
2022-12-28T14:15:17.227Z,14.15
2022-12-28T14:17:46.556Z,10.75
2022-12-28T14:20:14.118Z,12.18
2022-12-28T14:22:41.402Z,10.10
2022-12-28T14:25:14.411Z,14.30
2022-12-28T14:28:03.846Z,8.77
2022-12-28T14:30:39.460Z,11.52
2022-12-28T14:33:24.644Z,7.32
2022-12-28T14:36:00.699Z,4.78
2022-12-28T14:38:46.012Z,9.38
2022-12-28T14:41:41.831Z,11.80
2022-12-28T14:44:29.702Z,9.07
2022-12-28T14:46:57.273Z,9.60
2022-12-28T14:49:30.149Z,5.68
2022-12-28T14:52:17.935Z,9.27
2022-12-28T14:54:50.626Z,7.32
2022-12-28T14:57:32.971Z,6.57
2022-12-28T15:00:28.557Z,11.27
2022-12-28T15:02:56.410Z,4.38
2022-12-28T15:05:45.411Z,7.05
2022-12-28T15:08:12.935Z,8.57
2022-12-28T15:10:49.930Z,10.05
2022-12-28T15:13:18.252Z,7.85
2022-12-28T15:15:52.457Z,8.25
2022-12-28T15:18:19.381Z,7.90
2022-12-28T15:20:46.349Z,9.13
2022-12-28T15:23:13.313Z,6.50
2022-12-28T15:25:40.229Z,7.05
2022-12-28T15:28:07.110Z,13.45
2022-12-28T15:30:34.182Z,9.05
2022-12-28T15:33:01.105Z,7.63
2022-12-28T15:35:28.057Z,7.60
2022-12-28T15:37:54.975Z,7.72
2022-12-28T15:40:21.921Z,8.57
2022-12-28T15:42:48.831Z,10.50
2022-12-28T15:45:16.036Z,4.97
2022-12-28T15:47:43.161Z,10.73
2022-12-28T15:50:10.837Z,5.13
2022-12-28T15:52:38.102Z,7.13
2022-12-28T15:55:05.727Z,10.88
2022-12-28T15:57:32.585Z,8.55
2022-12-28T15:59:59.448Z,8.43
2022-12-28T16:02:26.585Z,4.38
2022-12-28T16:04:53.710Z,8.18
2022-12-28T16:07:20.616Z,8.38
2022-12-28T16:09:47.626Z,5.65
2022-12-28T16:12:17.314Z,9.20
2022-12-28T16:14:46.076Z,8.68
2022-12-28T16:17:13.399Z,9.18
2022-12-28T16:19:40.466Z,11.00
2022-12-28T16:22:07.429Z,7.45
2022-12-28T16:24:34.586Z,10.95
2022-12-28T16:27:01.466Z,9.20
2022-12-28T16:29:28.433Z,12.00
2022-12-28T16:31:56.440Z,9.05
2022-12-28T16:34:23.429Z,5.03
2022-12-28T16:36:50.357Z,10.98
2022-12-28T16:39:18.360Z,9.00
2022-12-28T16:41:45.605Z,4.60
2022-12-28T16:44:19.167Z,10.52
2022-12-28T16:46:46.896Z,8.63
2022-12-28T16:49:14.259Z,5.97
2022-12-28T16:51:44.008Z,8.43
2022-12-28T16:54:19.456Z,9.27
2022-12-28T16:56:47.859Z,9.95
2022-12-28T16:59:26.492Z,10.07
2022-12-28T17:01:55.312Z,5.38
2022-12-28T17:04:22.980Z,7.13
2022-12-28T17:06:50.978Z,13.68
2022-12-28T17:09:19.071Z,7.47
2022-12-28T17:11:50.719Z,6.25
2022-12-28T17:14:35.983Z,7.78
2022-12-28T17:17:04.955Z,6.18
2022-12-28T17:19:31.864Z,6.63
2022-12-28T17:21:58.717Z,9.30
2022-12-28T17:24:26.035Z,7.55
2022-12-28T17:26:52.960Z,3.88
2022-12-28T17:29:19.920Z,8.20
2022-12-28T17:31:46.972Z,7.32
2022-12-28T17:34:14.960Z,13.15
2022-12-28T17:36:42.038Z,8.35
2022-12-28T17:39:08.999Z,6.38
2022-12-28T17:41:35.906Z,4.05
2022-12-28T17:44:03.169Z,6.80
2022-12-28T17:46:31.011Z,7.70
2022-12-28T17:48:59.230Z,6.10
2022-12-28T17:51:28.540Z,11.38
2022-12-28T17:53:56.496Z,6.07
2022-12-28T17:56:23.375Z,10.00
2022-12-28T17:58:54.829Z,8.00
2022-12-28T18:01:22.023Z,4.18
2022-12-28T18:03:48.938Z,8.20
2022-12-28T18:06:15.864Z,7.50
2022-12-28T18:08:42.774Z,5.85
2022-12-28T18:11:11.209Z,9.45
2022-12-28T18:13:39.133Z,17.40
2022-12-28T18:16:07.228Z,8.65
2022-12-28T18:18:34.092Z,8.27
2022-12-28T18:21:07.437Z,6.88
2022-12-28T18:23:34.554Z,5.05
2022-12-28T18:26:10.063Z,6.85
2022-12-28T18:28:37.279Z,5.75
2022-12-28T18:31:05.569Z,8.55
2022-12-28T18:33:33.255Z,7.65
2022-12-28T18:36:03.161Z,5.28
2022-12-28T18:38:30.121Z,4.57
2022-12-28T18:40:58.127Z,5.57
2022-12-28T18:43:25.737Z,8.63
2022-12-28T18:45:54.653Z,4.80
2022-12-28T18:48:21.714Z,5.18
2022-12-28T18:51:03.344Z,7.13
2022-12-28T18:53:30.892Z,4.75
2022-12-28T18:55:58.677Z,2.67
2022-12-28T18:58:29.985Z,3.20
2022-12-28T19:01:03.282Z,6.77
2022-12-28T19:03:30.488Z,5.57
2022-12-28T19:06:03.533Z,3.75
2022-12-28T19:08:32.367Z,6.68
2022-12-28T19:11:00.283Z,8.52
2022-12-28T19:13:32.083Z,7.32
2022-12-28T19:15:59.005Z,3.38
2022-12-28T19:18:25.896Z,4.47
2022-12-28T19:21:15.128Z,4.43
2022-12-28T19:23:41.955Z,8.85
2022-12-28T19:26:08.789Z,4.35
2022-12-28T19:28:35.633Z,5.85
2022-12-28T19:31:04.947Z,6.80
2022-12-28T19:33:32.165Z,6.32
2022-12-28T19:35:59.053Z,7.15
2022-12-28T19:38:26.009Z,4.20
2022-12-28T19:40:55.255Z,8.98
2022-12-28T19:43:22.915Z,6.38
2022-12-28T19:45:49.862Z,7.22
2022-12-28T19:48:16.747Z,5.07
2022-12-28T19:50:43.655Z,7.32
2022-12-28T19:53:10.578Z,8.98
2022-12-28T19:55:37.620Z,5.60
2022-12-28T19:58:04.595Z,10.88
2022-12-28T20:00:31.541Z,5.68
2022-12-28T20:02:58.498Z,8.35
2022-12-28T20:05:25.935Z,6.38
2022-12-28T20:07:52.869Z,9.23
2022-12-28T20:10:19.800Z,9.43
2022-12-28T20:12:46.713Z,6.75
2022-12-28T20:15:13.567Z,5.03
2022-12-28T20:17:42.108Z,5.78
2022-12-28T20:20:09.175Z,5.70
2022-12-28T20:22:39.397Z,4.93
2022-12-28T20:25:06.589Z,8.73
2022-12-28T20:27:33.460Z,6.55
2022-12-28T20:30:00.336Z,5.72
2022-12-28T20:32:27.203Z,12.23
2022-12-28T20:34:54.115Z,9.25
2022-12-28T20:37:21.015Z,10.45
2022-12-28T20:39:47.934Z,8.70
2022-12-28T20:42:33.444Z,6.75
2022-12-28T20:45:03.514Z,7.07
2022-12-28T20:47:30.433Z,10.57
2022-12-28T20:49:57.289Z,5.80
2022-12-28T20:52:24.230Z,5.13
2022-12-28T20:54:51.121Z,4.50
2022-12-28T20:57:18.072Z,8.15
2022-12-28T20:59:45.018Z,4.63
2022-12-28T21:02:12.076Z,4.07
2022-12-28T21:04:38.996Z,4.68
2022-12-28T21:07:05.923Z,4.82
2022-12-28T21:09:32.762Z,4.07
2022-12-28T21:11:59.694Z,3.80
2022-12-28T21:14:26.803Z,5.05
2022-12-28T21:16:53.669Z,4.85
2022-12-28T21:19:20.619Z,5.68
2022-12-28T21:21:48.643Z,4.88
2022-12-28T21:24:15.559Z,3.97
2022-12-28T21:26:42.379Z,4.70
2022-12-28T21:29:09.299Z,2.97
2022-12-28T21:31:36.254Z,3.67
2022-12-28T21:34:03.189Z,5.13
2022-12-28T21:36:30.053Z,3.53
2022-12-28T21:38:57.011Z,2.85
2022-12-28T21:41:42.493Z,6.10
2022-12-28T21:44:13.138Z,3.08
2022-12-28T21:46:40.334Z,3.50
2022-12-28T21:49:08.240Z,3.40
2022-12-28T21:51:35.647Z,3.50
2022-12-28T21:54:05.557Z,3.17
2022-12-28T21:56:34.880Z,3.25
2022-12-28T21:59:01.856Z,7.47
2022-12-28T22:01:47.901Z,3.80
2022-12-28T22:04:38.755Z,3.42
2022-12-28T22:07:07.719Z,3.58
2022-12-28T22:09:54.032Z,3.78
2022-12-28T22:12:35.016Z,5.65
2022-12-28T22:15:25.612Z,3.45
2022-12-28T22:17:56.455Z,3.72
2022-12-28T22:20:24.604Z,5.95
2022-12-28T22:22:51.824Z,3.88
2022-12-28T22:25:18.755Z,4.18
2022-12-28T22:27:45.657Z,3.42
2022-12-28T22:30:13.471Z,3.55
2022-12-28T22:32:40.652Z,3.83
2022-12-28T22:35:08.925Z,4.47
2022-12-28T22:37:36.489Z,3.08
2022-12-28T22:40:04.618Z,4.00
2022-12-28T22:42:31.918Z,4.32
2022-12-28T22:44:58.759Z,4.28
2022-12-28T22:47:28.129Z,5.88
2022-12-28T22:49:55.356Z,3.00
2022-12-28T22:52:22.335Z,3.65
2022-12-28T22:54:49.313Z,3.83
2022-12-28T22:57:16.146Z,3.30
2022-12-28T22:59:43.027Z,2.92
2022-12-28T23:02:10.064Z,3.17
2022-12-28T23:04:37.054Z,3.45
2022-12-28T23:07:04.566Z,3.10
2022-12-28T23:09:32.245Z,3.28
2022-12-28T23:11:59.220Z,2.90
2022-12-28T23:14:45.179Z,2.92
2022-12-28T23:17:15.278Z,3.97
2022-12-28T23:20:02.246Z,2.53
2022-12-28T23:22:49.595Z,6.05
2022-12-28T23:25:37.878Z,3.92
2022-12-28T23:28:07.429Z,3.45
2022-12-28T23:30:34.410Z,3.90
2022-12-28T23:33:01.329Z,2.65
2022-12-28T23:35:28.211Z,4.75
2022-12-28T23:37:55.215Z,3.00
2022-12-28T23:40:23.265Z,3.22
2022-12-28T23:42:50.515Z,2.75
2022-12-28T23:45:18.231Z,2.80
2022-12-28T23:47:45.712Z,3.58
2022-12-28T23:50:14.166Z,3.15
2022-12-28T23:52:41.682Z,3.47
2022-12-28T23:55:09.987Z,2.60
2022-12-28T23:57:37.604Z,2.80
